Time;durP1;ratioP1;P1;durP2;ratioP2;P2;SDS_P1;SDS_P2;PMS_P1;PMS_P2;Temp;Humidity;BMP_temperature;BMP_pressure;BME280_temperature;BME280_humidity;BME280_pressure;Samples;Min_cycle;Max_cycle;Signal;HPM_P1;HPM_P2
2023/05/14 00:02:13;;;;;;;;;;;14.00;99.90;;;;;;5112688;28;19959;-43
2023/05/14 00:04:39;;;;;;;;;;;14.00;99.90;;;;;;5131463;28;19952;-42
2023/05/14 00:07:05;;;;;;;;;;;14.00;99.90;;;;;;5132729;28;19951;-42
2023/05/14 00:09:31;;;;;;;;;;;14.00;99.90;;;;;;5132912;28;19955;-44
2023/05/14 00:11:56;;;;;;;;;;;14.00;99.90;;;;;;5133609;28;20228;-44
2023/05/14 00:14:22;;;;;;;;;;;13.90;99.90;;;;;;5133397;28;20323;-42
2023/05/14 00:16:47;;;;;;;;;;;13.90;99.90;;;;;;5132791;28;20030;-42
2023/05/14 00:19:13;;;;;;;;;;;13.90;99.90;;;;;;5133406;28;20429;-43
2023/05/14 00:21:38;;;;;;;;;;;13.90;99.90;;;;;;5133382;28;19907;-44
2023/05/14 00:24:04;;;;;;;;;;;13.80;99.90;;;;;;5135671;27;19940;-42
2023/05/14 00:26:29;;;;;;;;;;;13.80;99.90;;;;;;5137732;27;19907;-44
2023/05/14 00:28:55;;;;;;;;;;;13.70;99.90;;;;;;5137501;27;19942;-41
2023/05/14 00:31:20;;;;;;;;;;;13.70;99.90;;;;;;5136539;27;19908;-42
2023/05/14 00:33:46;;;;;;;;;;;13.70;99.90;;;;;;5130860;27;19926;-43
2023/05/14 00:36:11;;;;;;;;;;;13.60;99.90;;;;;;5126591;27;19911;-42
2023/05/14 00:38:37;;;;;;;;;;;13.60;99.90;;;;;;5136543;27;19907;-43
2023/05/14 00:41:02;;;;;;;;;;;13.60;99.90;;;;;;5137272;27;19958;-43
2023/05/14 00:43:28;;;;;;;;;;;13.60;99.90;;;;;;5137255;27;20278;-43
2023/05/14 00:45:54;;;;;;;;;;;13.60;99.90;;;;;;5136435;27;19908;-43
2023/05/14 00:48:20;;;;;;;;;;;13.60;99.90;;;;;;5137037;27;20362;-42
2023/05/14 00:50:45;;;;;;;;;;;13.60;99.90;;;;;;5136990;27;19911;-43
2023/05/14 00:53:12;;;;;;;;;;;13.60;99.90;;;;;;5136198;27;19907;-42
2023/05/14 00:55:38;;;;;;;;;;;13.50;99.90;;;;;;5137171;27;19915;-44
2023/05/14 00:58:06;;;;;;;;;;;13.50;99.90;;;;;;5136902;27;19998;-43
2023/05/14 01:00:31;;;;;;;;;;;13.50;99.90;;;;;;5136114;27;19908;-43
2023/05/14 01:03:00;;;;;;;;;;;13.50;99.90;;;;;;5136822;27;19914;-42
2023/05/14 01:05:28;;;;;;;;;;;13.40;99.90;;;;;;5116813;27;19908;-43
2023/05/14 01:08:05;;;;;;;;;;;13.40;99.90;;;;;;5115490;28;19927;-43
2023/05/14 01:10:38;;;;;;;;;;;13.40;99.90;;;;;;5116326;28;19915;-43
2023/05/14 01:13:11;;;;;;;;;;;13.40;99.90;;;;;;5115277;28;20423;-43
2023/05/14 01:15:38;;;;;;;;;;;13.30;99.90;;;;;;5116927;27;19959;-44
2023/05/14 01:18:06;;;;;;;;;;;13.30;99.90;;;;;;5115976;28;19999;-42
2023/05/14 01:20:31;;;;;;;;;;;13.30;99.90;;;;;;5115277;28;19908;-43
2023/05/14 01:22:57;;;;;;;;;;;13.20;99.90;;;;;;5115904;28;20282;-43
2023/05/14 01:25:22;;;;;;;;;;;13.20;99.90;;;;;;5115888;28;20374;-43
2023/05/14 01:28:00;;;;;;;;;;;13.20;99.90;;;;;;5115061;28;19931;-43
2023/05/14 01:30:29;;;;;;;;;;;13.10;99.90;;;;;;5115896;28;19908;-43
2023/05/14 01:32:57;;;;;;;;;;;13.10;99.90;;;;;;5115432;28;19927;-43
2023/05/14 01:35:24;;;;;;;;;;;13.10;99.90;;;;;;5132547;27;19920;-42
2023/05/14 01:37:51;;;;;;;;;;;13.00;99.90;;;;;;5136155;27;19908;-43
2023/05/14 01:40:16;;;;;;;;;;;13.10;99.90;;;;;;5136109;27;19931;-43
2023/05/14 01:42:42;;;;;;;;;;;13.00;99.90;;;;;;5134798;27;20378;-44
2023/05/14 01:45:08;;;;;;;;;;;13.00;99.90;;;;;;5135646;27;19918;-42
2023/05/14 01:47:33;;;;;;;;;;;13.00;99.90;;;;;;5129821;27;19919;-42
2023/05/14 01:49:59;;;;;;;;;;;12.90;99.90;;;;;;5135098;27;19908;-44
2023/05/14 01:52:24;;;;;;;;;;;12.90;99.90;;;;;;5135844;27;20000;-42
2023/05/14 01:54:50;;;;;;;;;;;12.80;99.90;;;;;;5135784;27;20377;-43
2023/05/14 01:57:15;;;;;;;;;;;12.80;99.90;;;;;;5135098;27;19907;-43
2023/05/14 01:59:41;;;;;;;;;;;12.80;99.90;;;;;;5135753;27;19907;-43
2023/05/14 02:02:06;;;;;;;;;;;12.70;99.90;;;;;;5134870;27;19912;-43
2023/05/14 02:04:32;;;;;;;;;;;12.70;99.90;;;;;;5123528;27;20385;-43
2023/05/14 02:06:57;;;;;;;;;;;12.70;99.90;;;;;;5114948;28;19965;-44
2023/05/14 02:09:23;;;;;;;;;;;12.70;99.90;;;;;;5114252;28;19908;-44
2023/05/14 02:11:48;;;;;;;;;;;12.70;99.90;;;;;;5114944;28;19908;-43
2023/05/14 02:14:14;;;;;;;;;;;12.60;99.90;;;;;;5114849;28;20271;-43
2023/05/14 02:16:40;;;;;;;;;;;12.60;99.90;;;;;;5114326;28;20266;-44
2023/05/14 02:19:05;;;;;;;;;;;12.60;99.90;;;;;;5114750;28;20431;-42
2023/05/14 02:21:31;;;;;;;;;;;12.60;99.90;;;;;;5114973;28;19914;-43
2023/05/14 02:23:56;;;;;;;;;;;12.60;99.90;;;;;;5114077;28;19954;-43
2023/05/14 02:26:22;;;;;;;;;;;12.60;99.90;;;;;;5114378;28;19912;-45
2023/05/14 02:28:47;;;;;;;;;;;12.60;99.90;;;;;;5118527;27;19916;-43
2023/05/14 02:31:13;;;;;;;;;;;12.60;99.90;;;;;;5113693;28;20406;-43
2023/05/14 02:33:38;;;;;;;;;;;12.60;99.90;;;;;;5114362;28;19924;-45
2023/05/14 02:36:04;;;;;;;;;;;12.60;99.90;;;;;;5114404;28;19945;-44
2023/05/14 02:38:29;;;;;;;;;;;12.60;99.90;;;;;;5113870;28;20334;-43
2023/05/14 02:40:55;;;;;;;;;;;12.60;99.90;;;;;;5114346;28;20041;-43
2023/05/14 02:43:20;;;;;;;;;;;12.60;99.90;;;;;;5114379;28;19908;-43
2023/05/14 02:45:46;;;;;;;;;;;12.60;99.90;;;;;;5113464;28;19908;-43
2023/05/14 02:48:11;;;;;;;;;;;12.60;99.90;;;;;;5114208;28;19908;-44
2023/05/14 02:50:37;;;;;;;;;;;12.50;99.90;;;;;;5114267;28;19907;-42
2023/05/14 02:53:02;;;;;;;;;;;12.50;99.90;;;;;;5113346;28;20320;-43
2023/05/14 02:55:28;;;;;;;;;;;12.50;99.90;;;;;;5113936;28;19915;-43
2023/05/14 02:57:53;;;;;;;;;;;12.40;99.90;;;;;;5114218;27;19953;-46
2023/05/14 03:00:19;;;;;;;;;;;12.40;99.90;;;;;;5113165;28;19966;-44
2023/05/14 03:02:44;;;;;;;;;;;12.40;99.90;;;;;;5113942;28;20285;-43
2023/05/14 03:05:10;;;;;;;;;;;12.30;99.90;;;;;;5113850;28;19908;-43
2023/05/14 03:07:35;;;;;;;;;;;12.30;99.90;;;;;;5113241;28;19908;-44
2023/05/14 03:10:01;;;;;;;;;;;12.20;99.90;;;;;;5113756;28;19944;-43
2023/05/14 03:12:26;;;;;;;;;;;12.20;99.90;;;;;;5113137;28;19953;-43
2023/05/14 03:14:52;;;;;;;;;;;12.20;99.90;;;;;;5113573;28;19916;-43
2023/05/14 03:17:17;;;;;;;;;;;12.20;99.90;;;;;;5113707;28;19955;-43
2023/05/14 03:19:43;;;;;;;;;;;12.20;99.90;;;;;;5112973;28;19908;-48
2023/05/14 03:22:08;;;;;;;;;;;12.20;99.90;;;;;;5113592;28;19914;-43
2023/05/14 03:24:33;;;;;;;;;;;12.20;99.90;;;;;;5113587;28;19912;-43
2023/05/14 03:26:59;;;;;;;;;;;12.20;99.90;;;;;;5117229;27;19926;-44
2023/05/14 03:29:24;;;;;;;;;;;12.20;99.90;;;;;;5134005;27;20365;-43
2023/05/14 03:31:50;;;;;;;;;;;12.30;99.90;;;;;;5134091;27;19915;-43
2023/05/14 03:34:16;;;;;;;;;;;12.20;99.90;;;;;;5132888;27;20322;-43
2023/05/14 03:36:41;;;;;;;;;;;12.20;99.90;;;;;;5133945;27;19912;-44
2023/05/14 03:39:08;;;;;;;;;;;12.20;99.90;;;;;;5133838;27;19907;-46
2023/05/14 03:41:33;;;;;;;;;;;12.20;99.90;;;;;;5133305;27;19962;-43
2023/05/14 03:43:59;;;;;;;;;;;12.20;99.90;;;;;;5126642;27;19957;-44
2023/05/14 03:46:24;;;;;;;;;;;12.10;99.90;;;;;;5113268;28;20020;-44
2023/05/14 03:48:50;;;;;;;;;;;12.10;99.90;;;;;;5112522;28;19908;-44
2023/05/14 03:51:15;;;;;;;;;;;12.10;99.90;;;;;;5113078;28;19915;-44
2023/05/14 03:53:41;;;;;;;;;;;12.10;99.90;;;;;;5113189;28;20302;-44
2023/05/14 03:56:06;;;;;;;;;;;12.00;99.90;;;;;;5112194;28;19915;-43
2023/05/14 03:58:32;;;;;;;;;;;12.00;99.90;;;;;;5112759;28;19908;-42
2023/05/14 04:00:57;;;;;;;;;;;12.00;99.90;;;;;;5113202;28;20319;-44
2023/05/14 04:03:23;;;;;;;;;;;12.00;99.90;;;;;;5112254;28;19981;-44
2023/05/14 04:05:49;;;;;;;;;;;11.90;99.90;;;;;;5113033;28;20003;-43
2023/05/14 04:08:15;;;;;;;;;;;11.90;99.90;;;;;;5113011;28;19911;-42
2023/05/14 04:10:41;;;;;;;;;;;11.90;99.90;;;;;;5112264;28;19960;-42
2023/05/14 04:13:06;;;;;;;;;;;11.90;99.90;;;;;;5112969;28;19953;-42
2023/05/14 04:15:32;;;;;;;;;;;11.90;99.90;;;;;;5112885;28;19919;-43
2023/05/14 04:17:57;;;;;;;;;;;11.90;99.90;;;;;;5112210;28;19908;-43
2023/05/14 04:20:23;;;;;;;;;;;12.00;99.90;;;;;;5112921;28;19912;-43
2023/05/14 04:22:48;;;;;;;;;;;12.00;99.90;;;;;;5112202;28;19910;-44
2023/05/14 04:25:14;;;;;;;;;;;12.00;99.90;;;;;;5112880;28;20537;-44
2023/05/14 04:27:39;;;;;;;;;;;12.00;99.90;;;;;;5113050;28;19908;-44
2023/05/14 04:30:07;;;;;;;;;;;12.00;99.90;;;;;;5112003;28;19915;-42
2023/05/14 04:32:33;;;;;;;;;;;12.00;99.90;;;;;;5112717;28;19938;-43
2023/05/14 04:34:58;;;;;;;;;;;12.00;99.90;;;;;;5113004;28;20454;-43
2023/05/14 04:37:24;;;;;;;;;;;12.00;99.90;;;;;;5112044;28;19908;-43
2023/05/14 04:39:50;;;;;;;;;;;12.00;99.90;;;;;;5112404;28;19938;-42
2023/05/14 04:42:15;;;;;;;;;;;12.00;99.90;;;;;;5112880;28;19907;-43
2023/05/14 04:44:41;;;;;;;;;;;12.00;99.90;;;;;;5122995;28;20013;-44
2023/05/14 04:47:06;;;;;;;;;;;12.00;99.90;;;;;;5133082;28;19913;-43
2023/05/14 04:49:32;;;;;;;;;;;12.00;99.90;;;;;;5133367;28;20567;-45
2023/05/14 04:51:57;;;;;;;;;;;12.10;99.90;;;;;;5132398;28;20370;-43
2023/05/14 04:54:23;;;;;;;;;;;12.10;99.90;;;;;;5133240;28;19922;-44
2023/05/14 04:56:49;;;;;;;;;;;12.10;99.90;;;;;;5133420;28;19908;-43
2023/05/14 04:59:15;;;;;;;;;;;12.20;99.90;;;;;;5132172;28;19915;-44
2023/05/14 05:01:40;;;;;;;;;;;12.20;99.90;;;;;;5133225;28;19931;-43
2023/05/14 05:04:06;;;;;;;;;;;12.20;99.90;;;;;;5132966;28;19954;-43
2023/05/14 05:06:31;;;;;;;;;;;12.30;99.90;;;;;;5118280;28;20354;-45
2023/05/14 05:08:57;;;;;;;;;;;12.40;99.90;;;;;;5112403;28;19908;-42
2023/05/14 05:11:22;;;;;;;;;;;12.40;99.90;;;;;;5115447;28;19960;-43
2023/05/14 05:13:48;;;;;;;;;;;12.50;99.90;;;;;;5115525;28;19931;-42
2023/05/14 05:16:13;;;;;;;;;;;12.50;99.90;;;;;;5115962;28;19922;-43
2023/05/14 05:18:39;;;;;;;;;;;12.50;99.90;;;;;;5116229;28;19915;-46
2023/05/14 05:21:04;;;;;;;;;;;12.50;99.90;;;;;;5115149;28;20397;-44
2023/05/14 05:23:30;;;;;;;;;;;12.60;99.90;;;;;;5115691;28;19915;-42
2023/05/14 05:25:55;;;;;;;;;;;12.60;99.90;;;;;;5115812;28;19908;-43
2023/05/14 05:28:21;;;;;;;;;;;12.60;99.90;;;;;;5115235;28;19914;-44
2023/05/14 05:30:46;;;;;;;;;;;12.70;99.90;;;;;;5115977;28;19987;-42
2023/05/14 05:33:12;;;;;;;;;;;12.70;99.90;;;;;;5114812;28;19981;-43
2023/05/14 05:35:37;;;;;;;;;;;12.80;99.90;;;;;;5115935;27;19924;-44
2023/05/14 05:38:03;;;;;;;;;;;12.80;99.90;;;;;;5115507;28;20391;-44
2023/05/14 05:40:28;;;;;;;;;;;12.80;99.90;;;;;;5109544;28;20421;-43
2023/05/14 05:42:54;;;;;;;;;;;12.80;99.90;;;;;;5114667;28;20002;-44
2023/05/14 05:45:19;;;;;;;;;;;12.90;99.90;;;;;;5114445;28;20366;-44
2023/05/14 05:47:44;;;;;;;;;;;13.00;99.90;;;;;;5114263;28;19919;-44
2023/05/14 05:50:11;;;;;;;;;;;13.10;99.90;;;;;;5115862;27;20416;-43
2023/05/14 05:52:36;;;;;;;;;;;13.10;99.90;;;;;;5135953;27;19908;-43
2023/05/14 05:55:02;;;;;;;;;;;13.20;99.90;;;;;;5135013;27;19923;-43
2023/05/14 05:57:27;;;;;;;;;;;13.20;99.90;;;;;;5132901;27;20346;-42
2023/05/14 05:59:53;;;;;;;;;;;13.30;99.90;;;;;;5115371;28;20367;-42
2023/05/14 06:02:19;;;;;;;;;;;13.30;99.90;;;;;;5114654;28;20053;-42
2023/05/14 06:04:44;;;;;;;;;;;13.40;99.90;;;;;;5115598;28;20013;-43
2023/05/14 06:07:10;;;;;;;;;;;13.40;99.90;;;;;;5115054;28;19922;-43
2023/05/14 06:09:35;;;;;;;;;;;13.50;99.90;;;;;;5114310;28;19915;-43
2023/05/14 06:12:00;;;;;;;;;;;13.60;99.90;;;;;;5115047;28;19951;-43
2023/05/14 06:14:26;;;;;;;;;;;13.60;99.90;;;;;;5114996;28;20344;-43
2023/05/14 06:16:51;;;;;;;;;;;13.70;99.90;;;;;;5114202;28;19914;-44
2023/05/14 06:19:17;;;;;;;;;;;13.80;99.90;;;;;;5114826;28;19907;-44
2023/05/14 06:21:43;;;;;;;;;;;13.90;99.90;;;;;;5114361;28;19939;-43
2023/05/14 06:24:08;;;;;;;;;;;14.00;99.90;;;;;;5113756;27;19908;-43
2023/05/14 06:26:34;;;;;;;;;;;14.00;99.90;;;;;;5115847;27;19912;-44
2023/05/14 06:28:59;;;;;;;;;;;14.10;99.90;;;;;;5122297;27;19998;-43
2023/05/14 06:31:25;;;;;;;;;;;14.20;99.90;;;;;;5123512;27;20278;-44
2023/05/14 06:33:50;;;;;;;;;;;14.20;99.90;;;;;;5122125;27;19980;-43
2023/05/14 06:36:16;;;;;;;;;;;14.20;99.90;;;;;;5128608;27;19927;-44
2023/05/14 06:38:41;;;;;;;;;;;14.30;99.90;;;;;;5126890;27;19908;-43
2023/05/14 06:41:07;;;;;;;;;;;14.40;99.90;;;;;;5118150;27;20276;-44
2023/05/14 06:43:32;;;;;;;;;;;14.40;99.90;;;;;;5121732;27;19911;-43
2023/05/14 06:45:58;;;;;;;;;;;14.50;99.90;;;;;;5123075;27;20020;-43
2023/05/14 06:48:26;;;;;;;;;;;14.60;99.90;;;;;;5126529;27;19926;-42
2023/05/14 06:50:51;;;;;;;;;;;14.70;99.90;;;;;;5124608;27;19911;-43
2023/05/14 06:53:17;;;;;;;;;;;14.70;99.90;;;;;;5123944;27;19912;-44
2023/05/14 06:55:42;;;;;;;;;;;14.80;99.90;;;;;;5124692;27;20320;-43
2023/05/14 06:58:08;;;;;;;;;;;14.90;99.90;;;;;;5121669;27;20057;-44
2023/05/14 07:00:33;;;;;;;;;;;15.00;99.90;;;;;;5122646;27;19926;-43
2023/05/14 07:02:59;;;;;;;;;;;15.10;99.90;;;;;;5135759;27;20361;-44
2023/05/14 07:05:25;;;;;;;;;;;15.20;99.90;;;;;;5150594;27;19919;-42
2023/05/14 07:07:50;;;;;;;;;;;15.30;99.90;;;;;;5151340;27;20011;-44
2023/05/14 07:10:16;;;;;;;;;;;15.40;99.90;;;;;;5141562;27;20006;-43
2023/05/14 07:12:41;;;;;;;;;;;15.50;99.90;;;;;;5136558;27;20354;-42
2023/05/14 07:15:07;;;;;;;;;;;15.60;99.90;;;;;;5141250;27;19919;-45
2023/05/14 07:17:32;;;;;;;;;;;15.70;99.90;;;;;;5153953;27;19907;-43
2023/05/14 07:19:58;;;;;;;;;;;15.90;99.90;;;;;;5138113;27;19911;-44
2023/05/14 07:22:23;;;;;;;;;;;16.00;99.90;;;;;;5134198;27;19911;-42
2023/05/14 07:24:49;;;;;;;;;;;16.10;99.90;;;;;;5133998;27;20014;-43
2023/05/14 07:27:15;;;;;;;;;;;16.10;99.90;;;;;;5138445;27;19915;-45
2023/05/14 07:29:41;;;;;;;;;;;16.20;99.90;;;;;;5146070;27;19994;-43
2023/05/14 07:32:07;;;;;;;;;;;16.20;99.90;;;;;;5145063;27;20362;-43
2023/05/14 07:34:32;;;;;;;;;;;16.30;99.90;;;;;;5132001;27;19952;-44
2023/05/14 07:36:58;;;;;;;;;;;16.30;99.90;;;;;;5140591;27;20392;-43
2023/05/14 07:39:23;;;;;;;;;;;16.40;99.90;;;;;;5153571;27;19966;-44
2023/05/14 07:41:49;;;;;;;;;;;16.40;99.90;;;;;;5153013;27;20259;-43
2023/05/14 07:44:15;;;;;;;;;;;16.50;99.90;;;;;;5154083;27;19936;-44
2023/05/14 07:46:41;;;;;;;;;;;16.50;99.90;;;;;;5153887;27;19911;-44
2023/05/14 07:49:06;;;;;;;;;;;16.60;99.90;;;;;;5122278;27;20387;-44
2023/05/14 07:51:32;;;;;;;;;;;16.60;99.90;;;;;;5113084;28;19908;-44
2023/05/14 07:53:57;;;;;;;;;;;16.70;99.90;;;;;;5142491;27;20079;-43
2023/05/14 07:56:23;;;;;;;;;;;16.80;99.90;;;;;;5133041;27;20289;-43
2023/05/14 07:58:49;;;;;;;;;;;16.90;99.90;;;;;;5133608;28;19908;-45
2023/05/14 08:01:15;;;;;;;;;;;16.90;99.90;;;;;;5132775;28;19913;-44
2023/05/14 08:03:40;;;;;;;;;;;17.00;99.90;;;;;;5133169;28;19915;-44
2023/05/14 08:06:05;;;;;;;;;;;17.10;99.90;;;;;;5136120;27;19911;-43
2023/05/14 08:08:31;;;;;;;;;;;17.10;99.90;;;;;;5153516;27;19907;-44
2023/05/14 08:10:56;;;;;;;;;;;17.20;99.90;;;;;;5149872;27;19956;-43
2023/05/14 08:13:22;;;;;;;;;;;17.30;99.90;;;;;;5141399;27;19911;-44
2023/05/14 08:15:47;;;;;;;;;;;17.30;99.90;;;;;;5145222;27;19919;-44
2023/05/14 08:18:13;;;;;;;;;;;17.30;99.90;;;;;;5137491;27;19998;-44
2023/05/14 08:20:38;;;;;;;;;;;17.40;99.90;;;;;;5136901;27;19937;-43
2023/05/14 08:23:06;;;;;;;;;;;17.40;99.90;;;;;;5145794;27;20341;-43
2023/05/14 08:25:32;;;;;;;;;;;17.40;99.90;;;;;;5137964;27;19912;-44
2023/05/14 08:27:58;;;;;;;;;;;17.50;99.90;;;;;;5135530;27;19911;-43
2023/05/14 08:30:24;;;;;;;;;;;17.50;99.90;;;;;;5139318;27;19979;-44
2023/05/14 08:32:50;;;;;;;;;;;17.60;99.90;;;;;;5141214;27;20355;-45
2023/05/14 08:35:16;;;;;;;;;;;17.70;99.90;;;;;;5145166;27;19926;-44
2023/05/14 08:37:41;;;;;;;;;;;17.70;99.90;;;;;;5136985;27;19908;-44
2023/05/14 08:40:07;;;;;;;;;;;17.80;99.90;;;;;;5153040;27;20360;-43
2023/05/14 08:42:33;;;;;;;;;;;17.90;99.90;;;;;;5150581;27;20013;-43
2023/05/14 08:45:02;;;;;;;;;;;18.00;99.90;;;;;;5137349;27;19998;-43
2023/05/14 08:47:29;;;;;;;;;;;18.00;99.90;;;;;;5126775;27;19919;-43
2023/05/14 08:50:05;;;;;;;;;;;18.20;99.90;;;;;;5112395;27;19916;-47
2023/05/14 08:52:30;;;;;;;;;;;18.30;99.90;;;;;;5116669;28;19915;-43
2023/05/14 08:54:58;;;;;;;;;;;18.30;99.90;;;;;;5116439;28;19923;-43
2023/05/14 08:57:25;;;;;;;;;;;18.30;99.90;;;;;;5139605;27;19911;-44
2023/05/14 08:59:51;;;;;;;;;;;18.30;99.90;;;;;;5139824;27;19921;-44
2023/05/14 09:02:18;;;;;;;;;;;18.30;99.90;;;;;;5156036;27;19907;-45
2023/05/14 09:04:44;;;;;;;;;;;18.30;99.90;;;;;;5156482;27;19913;-43
2023/05/14 09:07:10;;;;;;;;;;;18.30;99.90;;;;;;5158223;27;20410;-43
2023/05/14 09:09:36;;;;;;;;;;;18.30;99.90;;;;;;5158427;27;19907;-44
2023/05/14 09:12:01;;;;;;;;;;;18.30;99.90;;;;;;5157654;27;19914;-43
2023/05/14 09:14:27;;;;;;;;;;;18.30;99.90;;;;;;5158197;27;19943;-44
2023/05/14 09:16:53;;;;;;;;;;;18.40;99.90;;;;;;5137828;27;19912;-42
2023/05/14 09:19:19;;;;;;;;;;;18.40;99.90;;;;;;5121808;27;19916;-44
2023/05/14 09:21:45;;;;;;;;;;;18.40;99.90;;;;;;5127568;27;19908;-43
2023/05/14 09:24:20;;;;;;;;;;;18.50;99.90;;;;;;5129921;27;19912;-45
2023/05/14 09:26:48;;;;;;;;;;;18.50;99.90;;;;;;5118273;27;20370;-43
2023/05/14 09:29:14;;;;;;;;;;;18.60;99.90;;;;;;5131005;27;19908;-44
2023/05/14 09:31:40;;;;;;;;;;;18.70;99.90;;;;;;5122426;27;19907;-47
2023/05/14 09:34:05;;;;;;;;;;;18.70;99.90;;;;;;5125621;27;19924;-44
2023/05/14 09:36:33;;;;;;;;;;;18.80;99.90;;;;;;5141109;27;20026;-44
2023/05/14 09:38:59;;;;;;;;;;;18.90;99.90;;;;;;5130607;27;19908;-44
2023/05/14 09:41:25;;;;;;;;;;;19.10;99.90;;;;;;5125648;27;20010;-44
2023/05/14 09:43:50;;;;;;;;;;;19.20;99.90;;;;;;5124194;27;20041;-43
2023/05/14 09:46:16;;;;;;;;;;;19.30;99.90;;;;;;5132651;27;19908;-47
2023/05/14 09:48:41;;;;;;;;;;;19.40;99.90;;;;;;5133913;27;19912;-48
2023/05/14 09:51:08;;;;;;;;;;;19.40;99.90;;;;;;5130193;27;19918;-45
2023/05/14 09:53:34;;;;;;;;;;;19.50;99.90;;;;;;5117125;27;19920;-47
2023/05/14 09:56:00;;;;;;;;;;;19.50;99.90;;;;;;5112451;28;19916;-46
2023/05/14 09:58:25;;;;;;;;;;;19.70;99.90;;;;;;5113786;28;20247;-44
2023/05/14 10:00:51;;;;;;;;;;;19.70;99.90;;;;;;5113788;28;19908;-44
2023/05/14 10:03:17;;;;;;;;;;;19.80;99.90;;;;;;5114461;28;19960;-44
2023/05/14 10:05:43;;;;;;;;;;;19.90;99.90;;;;;;5117601;27;20374;-43
2023/05/14 10:08:12;;;;;;;;;;;19.90;99.90;;;;;;5125292;27;19908;-45
2023/05/14 10:10:37;;;;;;;;;;;20.00;99.90;;;;;;5139576;27;19917;-44
2023/05/14 10:13:05;;;;;;;;;;;20.00;99.90;;;;;;5147785;27;19911;-44
2023/05/14 10:15:42;;;;;;;;;;;20.10;99.90;;;;;;5148720;27;20369;-43
2023/05/14 10:18:09;;;;;;;;;;;20.10;99.90;;;;;;5119780;27;19920;-44
2023/05/14 10:20:36;;;;;;;;;;;20.20;99.90;;;;;;5133403;27;19921;-44
2023/05/14 10:23:02;;;;;;;;;;;20.20;99.90;;;;;;5132504;27;19941;-44
2023/05/14 10:25:28;;;;;;;;;;;20.30;99.90;;;;;;5133591;27;19912;-46
2023/05/14 10:27:53;;;;;;;;;;;20.50;99.90;;;;;;5133798;27;19914;-46
2023/05/14 10:30:20;;;;;;;;;;;20.60;99.90;;;;;;5132381;27;19958;-44
2023/05/14 10:32:45;;;;;;;;;;;20.70;99.90;;;;;;5135354;27;19951;-44
2023/05/14 10:35:16;;;;;;;;;;;21.00;99.90;;;;;;5136339;27;19962;-44
2023/05/14 10:37:42;;;;;;;;;;;21.10;99.90;;;;;;5144277;27;19907;-45
2023/05/14 10:40:08;;;;;;;;;;;21.30;98.80;;;;;;5156064;27;19942;-42
2023/05/14 10:42:38;;;;;;;;;;;21.40;99.50;;;;;;5155793;27;19959;-43
2023/05/14 10:45:06;;;;;;;;;;;21.50;96.70;;;;;;5156280;27;19952;-44
2023/05/14 10:47:32;;;;;;;;;;;21.40;95.70;;;;;;5156291;27;20345;-43
2023/05/14 10:49:58;;;;;;;;;;;21.40;95.20;;;;;;5134149;27;19919;-43
2023/05/14 10:52:24;;;;;;;;;;;21.50;93.70;;;;;;5136800;27;19911;-44
2023/05/14 10:54:50;;;;;;;;;;;21.60;93.60;;;;;;5144155;27;19922;-43
2023/05/14 10:57:19;;;;;;;;;;;21.60;93.80;;;;;;5138925;27;19915;-43
2023/05/14 10:59:48;;;;;;;;;;;21.60;93.40;;;;;;5133349;27;19911;-46
2023/05/14 11:02:21;;;;;;;;;;;21.60;92.80;;;;;;5130841;27;19915;-43
2023/05/14 11:05:02;;;;;;;;;;;21.70;94.10;;;;;;5134713;27;19907;-43
2023/05/14 11:07:32;;;;;;;;;;;21.70;93.50;;;;;;5135139;27;20002;-44
2023/05/14 11:10:02;;;;;;;;;;;21.80;91.80;;;;;;5134353;27;19915;-44
2023/05/14 11:12:28;;;;;;;;;;;21.80;92.60;;;;;;5134445;27;19912;-45
2023/05/14 11:14:55;;;;;;;;;;;21.90;92.10;;;;;;5135029;27;19968;-43
2023/05/14 11:17:21;;;;;;;;;;;21.90;91.40;;;;;;5134816;27;20364;-44
2023/05/14 11:19:46;;;;;;;;;;;22.00;92.60;;;;;;5133894;27;19924;-47
2023/05/14 11:22:13;;;;;;;;;;;22.00;91.50;;;;;;5134752;27;19907;-46
2023/05/14 11:24:39;;;;;;;;;;;22.10;91.90;;;;;;5134854;27;19908;-47
2023/05/14 11:27:06;;;;;;;;;;;22.20;90.50;;;;;;5134514;27;20010;-43
2023/05/14 11:29:34;;;;;;;;;;;22.30;92.60;;;;;;5131400;27;20775;-44
2023/05/14 11:32:00;;;;;;;;;;;22.40;93.10;;;;;;5146804;27;19922;-44
2023/05/14 11:34:25;;;;;;;;;;;22.30;91.80;;;;;;5154683;27;19947;-44
2023/05/14 11:36:53;;;;;;;;;;;22.30;92.00;;;;;;5154698;27;20295;-44
2023/05/14 11:39:18;;;;;;;;;;;22.40;91.20;;;;;;5125641;27;19985;-43
2023/05/14 11:41:44;;;;;;;;;;;22.40;92.20;;;;;;5113831;28;19915;-44
2023/05/14 11:44:10;;;;;;;;;;;22.40;91.80;;;;;;5113871;28;19908;-44
2023/05/14 11:46:35;;;;;;;;;;;22.50;89.50;;;;;;5127601;27;19937;-45
2023/05/14 11:49:05;;;;;;;;;;;22.60;91.30;;;;;;5134420;27;19935;-44
2023/05/14 11:51:31;;;;;;;;;;;22.70;88.90;;;;;;5134314;27;19915;-46
2023/05/14 11:53:57;;;;;;;;;;;22.80;88.40;;;;;;5133849;27;19907;-44
2023/05/14 11:56:23;;;;;;;;;;;22.80;85.30;;;;;;5134175;27;20343;-44
2023/05/14 11:58:54;;;;;;;;;;;22.80;85.50;;;;;;5135159;27;19950;-47
2023/05/14 12:01:19;;;;;;;;;;;22.90;83.50;;;;;;5137066;27;19911;-44
2023/05/14 12:03:45;;;;;;;;;;;23.10;83.60;;;;;;5143934;27;20002;-46
2023/05/14 12:06:10;;;;;;;;;;;23.10;80.60;;;;;;5149918;27;19918;-45
2023/05/14 12:08:36;;;;;;;;;;;23.20;82.30;;;;;;5151050;27;19942;-44
2023/05/14 12:11:02;;;;;;;;;;;23.30;84.70;;;;;;5154269;27;19907;-43
2023/05/14 12:13:31;;;;;;;;;;;23.30;87.00;;;;;;5154105;27;19907;-43
2023/05/14 12:15:57;;;;;;;;;;;23.30;85.90;;;;;;5153405;27;19919;-46
2023/05/14 12:18:27;;;;;;;;;;;23.30;79.60;;;;;;5131659;27;20362;-44
2023/05/14 12:20:52;;;;;;;;;;;23.40;83.70;;;;;;5116875;27;20122;-43
2023/05/14 12:23:25;;;;;;;;;;;23.50;80.30;;;;;;5116004;28;20034;-44
2023/05/14 12:25:51;;;;;;;;;;;23.50;77.50;;;;;;5116833;28;19908;-42
2023/05/14 12:28:17;;;;;;;;;;;23.40;69.60;;;;;;5115929;27;19974;-43
2023/05/14 12:30:42;;;;;;;;;;;23.50;69.00;;;;;;5134090;27;19968;-44
2023/05/14 12:33:08;;;;;;;;;;;23.40;70.60;;;;;;5130827;27;19923;-44
2023/05/14 12:35:37;;;;;;;;;;;23.50;72.50;;;;;;5135258;27;19938;-44
2023/05/14 12:38:03;;;;;;;;;;;23.50;75.30;;;;;;5126790;27;20345;-44
2023/05/14 12:40:29;;;;;;;;;;;23.50;74.10;;;;;;5137917;27;20025;-45
2023/05/14 12:42:54;;;;;;;;;;;23.50;73.00;;;;;;5137419;27;19912;-44
2023/05/14 12:45:20;;;;;;;;;;;23.40;72.00;;;;;;5141905;27;19919;-43
2023/05/14 12:47:48;;;;;;;;;;;23.50;72.30;;;;;;5125724;27;20016;-43
2023/05/14 12:50:14;;;;;;;;;;;23.70;75.80;;;;;;5115390;28;20401;-46
2023/05/14 12:52:39;;;;;;;;;;;23.80;74.60;;;;;;5115538;28;19934;-44
2023/05/14 12:55:08;;;;;;;;;;;23.90;78.30;;;;;;5116519;28;20002;-43
2023/05/14 12:57:34;;;;;;;;;;;23.90;75.20;;;;;;5114553;28;19908;-45
2023/05/14 12:59:59;;;;;;;;;;;23.90;77.00;;;;;;5116203;28;19915;-45
2023/05/14 13:02:25;;;;;;;;;;;23.90;76.20;;;;;;5144557;27;20318;-44
2023/05/14 13:04:50;;;;;;;;;;;23.80;72.60;;;;;;5136859;27;19952;-44
2023/05/14 13:07:16;;;;;;;;;;;23.70;70.00;;;;;;5136678;27;19941;-44
2023/05/14 13:09:41;;;;;;;;;;;23.60;73.30;;;;;;5137498;27;20369;-47
2023/05/14 13:12:07;;;;;;;;;;;23.60;74.80;;;;;;5136625;27;19914;-44
2023/05/14 13:14:32;;;;;;;;;;;23.60;72.00;;;;;;5143178;27;19911;-44
2023/05/14 13:16:58;;;;;;;;;;;23.60;75.80;;;;;;5129878;27;19936;-44
2023/05/14 13:19:23;;;;;;;;;;;23.60;79.40;;;;;;5136701;27;19915;-45
2023/05/14 13:21:49;;;;;;;;;;;23.50;71.90;;;;;;5137350;27;19908;-45
2023/05/14 13:24:16;;;;;;;;;;;23.50;70.50;;;;;;5136208;27;19966;-45
2023/05/14 13:26:43;;;;;;;;;;;23.50;71.00;;;;;;5152306;27;19907;-46
2023/05/14 13:29:08;;;;;;;;;;;23.60;74.90;;;;;;5140874;27;19930;-46
2023/05/14 13:31:34;;;;;;;;;;;23.70;76.90;;;;;;5135201;27;20465;-45
2023/05/14 13:34:01;;;;;;;;;;;23.70;75.30;;;;;;5134890;27;20003;-44
2023/05/14 13:36:26;;;;;;;;;;;23.70;74.40;;;;;;5132759;27;19992;-46
2023/05/14 13:38:52;;;;;;;;;;;23.80;74.60;;;;;;5136406;27;20358;-44
2023/05/14 13:41:17;;;;;;;;;;;23.80;69.40;;;;;;5136538;27;19954;-46
2023/05/14 13:43:43;;;;;;;;;;;23.90;74.00;;;;;;5136889;27;20365;-44
2023/05/14 13:46:08;;;;;;;;;;;23.90;73.90;;;;;;5136195;27;19982;-44
2023/05/14 13:48:35;;;;;;;;;;;23.90;74.80;;;;;;5136680;27;19915;-44
2023/05/14 13:51:01;;;;;;;;;;;23.90;72.40;;;;;;5136613;27;19998;-43
2023/05/14 13:53:27;;;;;;;;;;;23.90;64.80;;;;;;5135914;27;19958;-45
2023/05/14 13:55:57;;;;;;;;;;;24.00;69.60;;;;;;5136094;27;20358;-45
2023/05/14 13:58:23;;;;;;;;;;;24.00;68.30;;;;;;5136070;27;19918;-45
2023/05/14 14:00:49;;;;;;;;;;;24.00;69.50;;;;;;5156613;27;19959;-46
2023/05/14 14:03:15;;;;;;;;;;;24.00;71.30;;;;;;5135701;27;19912;-45
2023/05/14 14:05:40;;;;;;;;;;;24.00;65.40;;;;;;5139816;27;20014;-44
2023/05/14 14:08:06;;;;;;;;;;;24.00;68.40;;;;;;5153454;27;19918;-44
2023/05/14 14:10:32;;;;;;;;;;;24.10;72.90;;;;;;5153026;27;19912;-45